Time;durP1;ratioP1;P1;durP2;ratioP2;P2;SDS_P1;SDS_P2;PMS_P1;PMS_P2;Temp;Humidity;BMP_temperature;BMP_pressure;BME280_temperature;BME280_humidity;BME280_pressure;Samples;Min_cycle;Max_cycle;Signal;HPM_P1;HPM_P2
2023/08/06 00:00:09;;;;;;;;;;;;;;;;;;1241580;23;20302;-76
2023/08/06 00:00:39;;;;;;;;;;;;;;;;;;1241712;23;20310;-76
2023/08/06 00:01:10;;;;;;;;;;;;;;;;;;1247482;23;20406;-76
2023/08/06 00:01:40;;;;;;;;;;;;;;;;;;1247659;23;19929;-76
2023/08/06 00:02:10;;;;;;;;;;;;;;;;;;1241546;23;19906;-76
2023/08/06 00:02:40;;;;;;;;;;;;;;;;;;1241666;23;19965;-76
2023/08/06 00:03:11;;;;;;;;;;;;;;;;;;1241579;23;19995;-76
2023/08/06 00:03:41;;;;;;;;;;;;;;;;;;1241783;23;20422;-77
2023/08/06 00:04:11;;;;;;;;;;;;;;;;;;1247581;23;19906;-77
2023/08/06 00:04:41;;;;;;;;;;;;;;;;;;1247678;23;19906;-76
2023/08/06 00:06:16;;;;;;;;;;;;;;;;;;1285512;22;19992;-78
2023/08/06 00:07:20;;;;;;;;;;;;;;;;;;1285463;23;19931;-76
2023/08/06 00:07:51;;;;;;;;;;;;;;;;;;1285330;23;19951;-77
2023/08/06 00:08:51;;;;;;;;;;;;;;;;;;1284851;22;19931;-77
2023/08/06 00:09:21;;;;;;;;;;;;;;;;;;1285449;23;20325;-77
2023/08/06 00:09:51;;;;;;;;;;;;;;;;;;1285160;23;19995;-77
2023/08/06 00:10:21;;;;;;;;;;;;;;;;;;1285499;23;19904;-77
2023/08/06 00:10:52;;;;;;;;;;;;;;;;;;1278554;23;19908;-77
2023/08/06 00:11:22;;;;;;;;;;;;;;;;;;1278913;23;19910;-77
2023/08/06 00:11:52;;;;;;;;;;;;;;;;;;1278655;23;19955;-77
2023/08/06 00:12:22;;;;;;;;;;;;;;;;;;1284248;23;20337;-77
2023/08/06 00:12:53;;;;;;;;;;;;;;;;;;1285226;23;19908;-77
2023/08/06 00:13:23;;;;;;;;;;;;;;;;;;1285554;23;19919;-77
2023/08/06 00:13:53;;;;;;;;;;;;;;;;;;1285276;23;19912;-77
2023/08/06 00:14:23;;;;;;;;;;;;;;;;;;1285498;23;19912;-77
2023/08/06 00:14:54;;;;;;;;;;;;;;;;;;1285238;23;20309;-76
2023/08/06 00:15:24;;;;;;;;;;;;;;;;;;1284978;23;20403;-76
2023/08/06 00:15:54;;;;;;;;;;;;;;;;;;1284864;23;20419;-76
2023/08/06 00:16:24;;;;;;;;;;;;;;;;;;1285206;23;19986;-76
2023/08/06 00:16:55;;;;;;;;;;;;;;;;;;1285002;23;20278;-76
2023/08/06 00:17:25;;;;;;;;;;;;;;;;;;1262645;23;19947;-76
2023/08/06 00:17:55;;;;;;;;;;;;;;;;;;1259464;23;19952;-78
2023/08/06 00:18:25;;;;;;;;;;;;;;;;;;1259782;23;19936;-79
2023/08/06 00:18:56;;;;;;;;;;;;;;;;;;1259572;23;20357;-79
2023/08/06 00:19:26;;;;;;;;;;;;;;;;;;1260187;23;19910;-79
2023/08/06 00:19:56;;;;;;;;;;;;;;;;;;1291205;23;19911;-79
2023/08/06 00:20:26;;;;;;;;;;;;;;;;;;1285064;23;20341;-79
2023/08/06 00:20:56;;;;;;;;;;;;;;;;;;1284958;23;20314;-80
2023/08/06 00:21:27;;;;;;;;;;;;;;;;;;1246847;23;20041;-79
2023/08/06 00:21:57;;;;;;;;;;;;;;;;;;1253423;23;20000;-79
2023/08/06 00:22:27;;;;;;;;;;;;;;;;;;1253745;23;20032;-78
2023/08/06 00:22:57;;;;;;;;;;;;;;;;;;1253444;23;20270;-79
2023/08/06 00:23:28;;;;;;;;;;;;;;;;;;1254102;23;19905;-79
2023/08/06 00:23:58;;;;;;;;;;;;;;;;;;1253837;23;20005;-79
2023/08/06 00:24:28;;;;;;;;;;;;;;;;;;1254031;23;19905;-79
2023/08/06 00:24:58;;;;;;;;;;;;;;;;;;1253975;23;19905;-79
2023/08/06 00:25:28;;;;;;;;;;;;;;;;;;1254251;23;19906;-79
2023/08/06 00:25:59;;;;;;;;;;;;;;;;;;1253238;23;19978;-79
2023/08/06 00:26:29;;;;;;;;;;;;;;;;;;1253870;23;19984;-79
2023/08/06 00:26:59;;;;;;;;;;;;;;;;;;1247383;23;19940;-79
2023/08/06 00:27:29;;;;;;;;;;;;;;;;;;1262532;23;19916;-80
2023/08/06 00:28:00;;;;;;;;;;;;;;;;;;1241822;23;19921;-80
2023/08/06 00:28:30;;;;;;;;;;;;;;;;;;1242075;23;19934;-79
2023/08/06 00:29:00;;;;;;;;;;;;;;;;;;1241763;23;19985;-79
2023/08/06 00:29:30;;;;;;;;;;;;;;;;;;1248159;23;19992;-79
2023/08/06 00:30:00;;;;;;;;;;;;;;;;;;1247918;23;19985;-80
2023/08/06 00:30:31;;;;;;;;;;;;;;;;;;1248125;23;20417;-79
2023/08/06 00:31:01;;;;;;;;;;;;;;;;;;1247991;23;19988;-79
2023/08/06 00:31:31;;;;;;;;;;;;;;;;;;1248280;23;19967;-79
2023/08/06 00:32:01;;;;;;;;;;;;;;;;;;1247576;23;19914;-79
2023/08/06 00:32:32;;;;;;;;;;;;;;;;;;1247969;23;19914;-79
2023/08/06 00:33:02;;;;;;;;;;;;;;;;;;1241673;23;19981;-79
2023/08/06 00:33:32;;;;;;;;;;;;;;;;;;1241816;23;19906;-77
2023/08/06 00:34:02;;;;;;;;;;;;;;;;;;1241566;23;20370;-77
2023/08/06 00:34:33;;;;;;;;;;;;;;;;;;1241823;23;19913;-77
2023/08/06 00:35:04;;;;;;;;;;;;;;;;;;1241847;23;19907;-77
2023/08/06 00:35:34;;;;;;;;;;;;;;;;;;1248215;23;19906;-78
2023/08/06 00:36:04;;;;;;;;;;;;;;;;;;1241791;23;20243;-78
2023/08/06 00:36:34;;;;;;;;;;;;;;;;;;1235937;24;19911;-79
2023/08/06 00:37:05;;;;;;;;;;;;;;;;;;1235965;23;19907;-79
2023/08/06 00:37:35;;;;;;;;;;;;;;;;;;1236246;24;19907;-79
2023/08/06 00:38:05;;;;;;;;;;;;;;;;;;1241840;23;19906;-79
2023/08/06 00:38:35;;;;;;;;;;;;;;;;;;1248047;23;19953;-79
2023/08/06 00:39:06;;;;;;;;;;;;;;;;;;1248139;23;19906;-79
2023/08/06 00:39:37;;;;;;;;;;;;;;;;;;1248394;23;19906;-79
2023/08/06 00:40:08;;;;;;;;;;;;;;;;;;1247975;23;19909;-79
2023/08/06 00:40:38;;;;;;;;;;;;;;;;;;1241881;23;19907;-79
2023/08/06 00:41:08;;;;;;;;;;;;;;;;;;1235856;24;20404;-79
2023/08/06 00:41:39;;;;;;;;;;;;;;;;;;1236024;24;20062;-79
2023/08/06 00:42:09;;;;;;;;;;;;;;;;;;1235990;23;19997;-79
2023/08/06 00:42:39;;;;;;;;;;;;;;;;;;1241864;23;20347;-78
2023/08/06 00:43:09;;;;;;;;;;;;;;;;;;1241993;23;20006;-78
2023/08/06 00:43:40;;;;;;;;;;;;;;;;;;1241933;23;19995;-78
2023/08/06 00:44:10;;;;;;;;;;;;;;;;;;1236066;24;19911;-79
2023/08/06 00:44:40;;;;;;;;;;;;;;;;;;1242113;23;19913;-78
2023/08/06 00:45:10;;;;;;;;;;;;;;;;;;1236111;24;19993;-78
2023/08/06 00:45:41;;;;;;;;;;;;;;;;;;1236237;24;19997;-78
2023/08/06 00:46:11;;;;;;;;;;;;;;;;;;1246221;23;19923;-78
2023/08/06 00:46:41;;;;;;;;;;;;;;;;;;1259792;23;19937;-78
2023/08/06 00:47:11;;;;;;;;;;;;;;;;;;1253345;23;20220;-78
2023/08/06 00:47:42;;;;;;;;;;;;;;;;;;1253812;23;19906;-78
2023/08/06 00:48:12;;;;;;;;;;;;;;;;;;1259527;23;19936;-78
2023/08/06 00:48:42;;;;;;;;;;;;;;;;;;1259723;23;19905;-79
2023/08/06 00:49:12;;;;;;;;;;;;;;;;;;1260124;23;19931;-79
2023/08/06 00:49:42;;;;;;;;;;;;;;;;;;1259601;23;19928;-79
2023/08/06 00:50:13;;;;;;;;;;;;;;;;;;1259354;23;19909;-79
2023/08/06 00:50:43;;;;;;;;;;;;;;;;;;1259615;23;19944;-79
2023/08/06 00:51:13;;;;;;;;;;;;;;;;;;1259534;23;19913;-78
2023/08/06 00:51:43;;;;;;;;;;;;;;;;;;1259711;23;19913;-78
2023/08/06 00:52:14;;;;;;;;;;;;;;;;;;1259986;23;19905;-78
2023/08/06 00:52:44;;;;;;;;;;;;;;;;;;1259587;23;20330;-79
2023/08/06 00:53:14;;;;;;;;;;;;;;;;;;1259735;23;20407;-79
2023/08/06 00:53:45;;;;;;;;;;;;;;;;;;1259808;23;20354;-79
2023/08/06 00:54:15;;;;;;;;;;;;;;;;;;1259575;23;20261;-78
2023/08/06 00:54:45;;;;;;;;;;;;;;;;;;1259811;23;20249;-79
2023/08/06 00:55:15;;;;;;;;;;;;;;;;;;1259716;23;19905;-78
2023/08/06 00:55:46;;;;;;;;;;;;;;;;;;1259447;23;19913;-76
2023/08/06 00:56:16;;;;;;;;;;;;;;;;;;1259194;23;19955;-76
2023/08/06 00:56:46;;;;;;;;;;;;;;;;;;1259546;23;20003;-76
2023/08/06 00:57:16;;;;;;;;;;;;;;;;;;1259367;23;20004;-76
2023/08/06 00:57:47;;;;;;;;;;;;;;;;;;1259632;23;19909;-76
2023/08/06 00:58:17;;;;;;;;;;;;;;;;;;1259216;23;19939;-76
2023/08/06 00:58:47;;;;;;;;;;;;;;;;;;1253502;23;20257;-76
2023/08/06 00:59:17;;;;;;;;;;;;;;;;;;1253356;23;19905;-77
2023/08/06 00:59:47;;;;;;;;;;;;;;;;;;1253489;23;19910;-77
2023/08/06 01:00:18;;;;;;;;;;;;;;;;;;1259306;23;19905;-77
2023/08/06 01:00:48;;;;;;;;;;;;;;;;;;1253406;23;19917;-77
2023/08/06 01:01:18;;;;;;;;;;;;;;;;;;1253220;23;19959;-77
2023/08/06 01:01:50;;;;;;;;;;;;;;;;;;1253476;23;20000;-77
2023/08/06 01:02:20;;;;;;;;;;;;;;;;;;1253347;23;19910;-77
2023/08/06 01:02:50;;;;;;;;;;;;;;;;;;1253796;23;20231;-77
2023/08/06 01:03:20;;;;;;;;;;;;;;;;;;1259490;23;19988;-77
2023/08/06 01:03:51;;;;;;;;;;;;;;;;;;1259195;23;20278;-77
2023/08/06 01:04:21;;;;;;;;;;;;;;;;;;1259478;23;19964;-77
2023/08/06 01:04:51;;;;;;;;;;;;;;;;;;1259259;23;20365;-77
2023/08/06 01:05:22;;;;;;;;;;;;;;;;;;1259349;23;19988;-77
2023/08/06 01:05:53;;;;;;;;;;;;;;;;;;1259155;23;20368;-77
2023/08/06 01:06:23;;;;;;;;;;;;;;;;;;1259381;23;19913;-77
2023/08/06 01:06:53;;;;;;;;;;;;;;;;;;1259251;23;20004;-77
2023/08/06 01:07:23;;;;;;;;;;;;;;;;;;1259438;23;19988;-77
2023/08/06 01:07:53;;;;;;;;;;;;;;;;;;1259564;23;19913;-77
2023/08/06 01:08:24;;;;;;;;;;;;;;;;;;1259856;23;19905;-77
2023/08/06 01:08:54;;;;;;;;;;;;;;;;;;1259162;23;19909;-77
2023/08/06 01:09:24;;;;;;;;;;;;;;;;;;1259461;23;19905;-77
2023/08/06 01:09:55;;;;;;;;;;;;;;;;;;1259229;23;19909;-77
2023/08/06 01:10:25;;;;;;;;;;;;;;;;;;1259582;23;19906;-77
2023/08/06 01:10:56;;;;;;;;;;;;;;;;;;1259162;23;19909;-77
2023/08/06 01:11:27;;;;;;;;;;;;;;;;;;1253366;23;19933;-77
2023/08/06 01:11:57;;;;;;;;;;;;;;;;;;1259207;23;19948;-77
2023/08/06 01:12:27;;;;;;;;;;;;;;;;;;1259639;23;19913;-77
2023/08/06 01:12:57;;;;;;;;;;;;;;;;;;1259269;23;20001;-77
2023/08/06 01:13:28;;;;;;;;;;;;;;;;;;1259880;23;19941;-77
2023/08/06 01:13:58;;;;;;;;;;;;;;;;;;1259557;23;19909;-77
2023/08/06 01:14:28;;;;;;;;;;;;;;;;;;1259394;23;19905;-77
2023/08/06 01:14:58;;;;;;;;;;;;;;;;;;1259270;23;19906;-77
2023/08/06 01:15:29;;;;;;;;;;;;;;;;;;1259411;23;19984;-77
2023/08/06 01:15:59;;;;;;;;;;;;;;;;;;1259242;23;19905;-77
2023/08/06 01:16:29;;;;;;;;;;;;;;;;;;1259593;23;19996;-77
2023/08/06 01:17:00;;;;;;;;;;;;;;;;;;1253129;23;19932;-77
2023/08/06 01:17:30;;;;;;;;;;;;;;;;;;1259514;23;19996;-77
2023/08/06 01:18:00;;;;;;;;;;;;;;;;;;1259302;23;20304;-77
2023/08/06 01:18:30;;;;;;;;;;;;;;;;;;1253482;23;19987;-77
2023/08/06 01:19:00;;;;;;;;;;;;;;;;;;1259257;23;19912;-77
2023/08/06 01:19:31;;;;;;;;;;;;;;;;;;1259596;23;19974;-77
2023/08/06 01:20:01;;;;;;;;;;;;;;;;;;1253205;23;19905;-77
2023/08/06 01:20:31;;;;;;;;;;;;;;;;;;1259366;23;19911;-77
2023/08/06 01:21:01;;;;;;;;;;;;;;;;;;1259253;23;19988;-77
2023/08/06 01:21:32;;;;;;;;;;;;;;;;;;1259567;23;19969;-77
2023/08/06 01:22:02;;;;;;;;;;;;;;;;;;1259251;23;20036;-77
2023/08/06 01:22:32;;;;;;;;;;;;;;;;;;1254440;22;19928;-77
2023/08/06 01:23:02;;;;;;;;;;;;;;;;;;1260350;23;19913;-77
2023/08/06 01:23:33;;;;;;;;;;;;;;;;;;1262020;23;19912;-77
2023/08/06 01:24:03;;;;;;;;;;;;;;;;;;1259920;23;20345;-78
2023/08/06 01:24:33;;;;;;;;;;;;;;;;;;1259568;23;19995;-78
2023/08/06 01:25:04;;;;;;;;;;;;;;;;;;1259396;23;19952;-77
2023/08/06 01:25:34;;;;;;;;;;;;;;;;;;1259540;23;19906;-77
2023/08/06 01:26:04;;;;;;;;;;;;;;;;;;1253191;23;19906;-78
2023/08/06 01:26:34;;;;;;;;;;;;;;;;;;1253495;23;20346;-78
2023/08/06 01:27:05;;;;;;;;;;;;;;;;;;1247278;23;19985;-77
2023/08/06 01:27:35;;;;;;;;;;;;;;;;;;1247620;23;19964;-78
2023/08/06 01:28:05;;;;;;;;;;;;;;;;;;1247372;23;19906;-77
2023/08/06 01:28:35;;;;;;;;;;;;;;;;;;1247667;23;19933;-77
2023/08/06 01:29:06;;;;;;;;;;;;;;;;;;1253285;23;19992;-77
2023/08/06 01:29:36;;;;;;;;;;;;;;;;;;1253798;23;19913;-80
2023/08/06 01:30:06;;;;;;;;;;;;;;;;;;1291366;23;19904;-80
2023/08/06 01:30:38;;;;;;;;;;;;;;;;;;1291353;23;20367;-80
2023/08/06 01:31:10;;;;;;;;;;;;;;;;;;1285100;23;20218;-80
2023/08/06 01:31:40;;;;;;;;;;;;;;;;;;1283165;23;19904;-80
2023/08/06 01:32:10;;;;;;;;;;;;;;;;;;1253564;23;19996;-80
2023/08/06 01:32:41;;;;;;;;;;;;;;;;;;1253915;23;19912;-79
2023/08/06 01:33:11;;;;;;;;;;;;;;;;;;1247752;23;19906;-79
2023/08/06 01:33:41;;;;;;;;;;;;;;;;;;1247769;23;19906;-79
2023/08/06 01:34:11;;;;;;;;;;;;;;;;;;1253798;23;19913;-79
2023/08/06 01:34:41;;;;;;;;;;;;;;;;;;1247855;23;19906;-80
2023/08/06 01:35:12;;;;;;;;;;;;;;;;;;1253685;23;19906;-80
2023/08/06 01:35:42;;;;;;;;;;;;;;;;;;1253972;23;20365;-80
2023/08/06 01:36:12;;;;;;;;;;;;;;;;;;1253619;23;19988;-80
2023/08/06 01:36:42;;;;;;;;;;;;;;;;;;1253697;23;19906;-80
2023/08/06 01:37:13;;;;;;;;;;;;;;;;;;1253820;23;19913;-80
2023/08/06 01:37:43;;;;;;;;;;;;;;;;;;1253942;23;19905;-80
2023/08/06 01:38:13;;;;;;;;;;;;;;;;;;1253962;23;19913;-80
2023/08/06 01:38:43;;;;;;;;;;;;;;;;;;1253713;23;19937;-80
2023/08/06 01:39:14;;;;;;;;;;;;;;;;;;1247482;23;19910;-80
2023/08/06 01:39:44;;;;;;;;;;;;;;;;;;1247960;23;19913;-80
2023/08/06 01:40:14;;;;;;;;;;;;;;;;;;1247828;23;19906;-80
2023/08/06 01:40:44;;;;;;;;;;;;;;;;;;1253618;23;19959;-80
2023/08/06 01:41:14;;;;;;;;;;;;;;;;;;1247697;23;20008;-79
2023/08/06 01:41:45;;;;;;;;;;;;;;;;;;1247742;23;19914;-80
2023/08/06 01:42:15;;;;;;;;;;;;;;;;;;1241766;23;19910;-80
2023/08/06 01:42:45;;;;;;;;;;;;;;;;;;1241956;23;19961;-79
2023/08/06 01:43:16;;;;;;;;;;;;;;;;;;1247606;23;19981;-77
2023/08/06 01:43:46;;;;;;;;;;;;;;;;;;1247537;23;19997;-79
2023/08/06 01:44:16;;;;;;;;;;;;;;;;;;1247755;23;19997;-80
2023/08/06 01:44:46;;;;;;;;;;;;;;;;;;1247889;23;20393;-80
2023/08/06 01:45:17;;;;;;;;;;;;;;;;;;1247678;23;19945;-80
2023/08/06 01:45:47;;;;;;;;;;;;;;;;;;1253716;23;19933;-79
2023/08/06 01:46:17;;;;;;;;;;;;;;;;;;1253499;23;19905;-79
2023/08/06 01:46:47;;;;;;;;;;;;;;;;;;1253813;23;20228;-80
2023/08/06 01:47:52;;;;;;;;;;;;;;;;;;1283343;23;19953;-79
2023/08/06 01:48:22;;;;;;;;;;;;;;;;;;1284262;23;19954;-79
2023/08/06 01:48:52;;;;;;;;;;;;;;;;;;1278777;23;19915;-80
2023/08/06 01:49:22;;;;;;;;;;;;;;;;;;1279343;23;19904;-80
2023/08/06 01:49:53;;;;;;;;;;;;;;;;;;1278965;23;20091;-78
2023/08/06 01:50:23;;;;;;;;;;;;;;;;;;1279118;23;19908;-77
2023/08/06 01:50:53;;;;;;;;;;;;;;;;;;1279095;23;19914;-79
2023/08/06 01:51:23;;;;;;;;;;;;;;;;;;1278889;23;19904;-80
2023/08/06 01:51:54;;;;;;;;;;;;;;;;;;1278647;23;20003;-78
2023/08/06 01:52:24;;;;;;;;;;;;;;;;;;1278877;23;20415;-80
2023/08/06 01:52:54;;;;;;;;;;;;;;;;;;1278802;23;19909;-80
2023/08/06 01:53:24;;;;;;;;;;;;;;;;;;1278958;23;19904;-79
2023/08/06 01:53:54;;;;;;;;;;;;;;;;;;1278687;23;19935;-77
2023/08/06 01:54:25;;;;;;;;;;;;;;;;;;1278994;23;19904;-79
2023/08/06 01:54:55;;;;;;;;;;;;;;;;;;1272596;23;19908;-80
2023/08/06 01:55:25;;;;;;;;;;;;;;;;;;1272887;23;19913;-80
2023/08/06 01:55:55;;;;;;;;;;;;;;;;;;1266373;23;20322;-78
2023/08/06 01:56:26;;;;;;;;;;;;;;;;;;1266786;23;19930;-80
2023/08/06 01:56:58;;;;;;;;;;;;;;;;;;1272535;23;19905;-79
2023/08/06 01:57:28;;;;;;;;;;;;;;;;;;1266913;23;20301;-79
2023/08/06 01:57:58;;;;;;;;;;;;;;;;;;1266332;23;19905;-79
2023/08/06 01:58:28;;;;;;;;;;;;;;;;;;1260842;23;19913;-79
2023/08/06 01:58:59;;;;;;;;;;;;;;;;;;1266450;23;20349;-79
2023/08/06 01:59:29;;;;;;;;;;;;;;;;;;1266462;23;19967;-79
2023/08/06 01:59:59;;;;;;;;;;;;;;;;;;1272505;23;19992;-80
2023/08/06 02:00:30;;;;;;;;;;;;;;;;;;1278867;23;19913;-79
2023/08/06 02:01:00;;;;;;;;;;;;;;;;;;1272459;23;19912;-79
2023/08/06 02:01:30;;;;;;;;;;;;;;;;;;1279039;23;19904;-80
2023/08/06 02:02:00;;;;;;;;;;;;;;;;;;1278733;23;20325;-80
2023/08/06 02:04:55;;;;;;;;;;;;;;;;;;1292538;22;19907;-79
2023/08/06 02:06:00;;;;;;;;;;;;;;;;;;1270993;22;19945;-78
2023/08/06 02:07:04;;;;;;;;;;;;;;;;;;1285312;23;20256;-77
2023/08/06 02:07:34;;;;;;;;;;;;;;;;;;1285593;23;19991;-78
2023/08/06 02:08:05;;;;;;;;;;;;;;;;;;1285375;23;19991;-78
2023/08/06 02:08:35;;;;;;;;;;;;;;;;;;1285455;23;19904;-78
2023/08/06 02:09:05;;;;;;;;;;;;;;;;;;1285361;23;19911;-77
2023/08/06 02:09:35;;;;;;;;;;;;;;;;;;1285378;23;19911;-77
2023/08/06 02:10:06;;;;;;;;;;;;;;;;;;1285275;23;19904;-79
2023/08/06 02:10:36;;;;;;;;;;;;;;;;;;1284970;23;20325;-77
2023/08/06 02:11:06;;;;;;;;;;;;;;;;;;1284912;23;19904;-77
2023/08/06 02:11:36;;;;;;;;;;;;;;;;;;1284857;23;19911;-78
2023/08/06 02:12:07;;;;;;;;;;;;;;;;;;1284887;23;19904;-77
2023/08/06 02:12:37;;;;;;;;;;;;;;;;;;1284921;23;19939;-77
2023/08/06 02:13:07;;;;;;;;;;;;;;;;;;1284847;23;19904;-78
2023/08/06 02:13:37;;;;;;;;;;;;;;;;;;1284952;23;19954;-78
2023/08/06 02:14:08;;;;;;;;;;;;;;;;;;1284737;23;19908;-78
2023/08/06 02:14:38;;;;;;;;;;;;;;;;;;1278745;23;19911;-77
2023/08/06 02:15:08;;;;;;;;;;;;;;;;;;1284991;23;19911;-78
2023/08/06 02:15:38;;;;;;;;;;;;;;;;;;1284939;23;19939;-76
2023/08/06 02:16:09;;;;;;;;;;;;;;;;;;1284850;23;19904;-78
2023/08/06 02:16:39;;;;;;;;;;;;;;;;;;1284777;23;19951;-77
2023/08/06 02:17:09;;;;;;;;;;;;;;;;;;1278409;23;19936;-77
2023/08/06 02:17:39;;;;;;;;;;;;;;;;;;1278612;23;20309;-77
2023/08/06 02:18:10;;;;;;;;;;;;;;;;;;1278558;23;20420;-77
2023/08/06 02:19:10;;;;;;;;;;;;;;;;;;1281959;22;19927;-78
2023/08/06 02:20:20;;;;;;;;;;;;;;;;;;1268241;22;19933;-77
2023/08/06 02:20:50;;;;;;;;;;;;;;;;;;1291651;23;20394;-78
2023/08/06 02:21:20;;;;;;;;;;;;;;;;;;1291354;23;20268;-78
2023/08/06 02:21:51;;;;;;;;;;;;;;;;;;1291418;23;19908;-78
2023/08/06 02:22:22;;;;;;;;;;;;;;;;;;1292428;22;19994;-77
2023/08/06 02:22:53;;;;;;;;;;;;;;;;;;1291326;22;19990;-78
2023/08/06 02:23:23;;;;;;;;;;;;;;;;;;1291551;22;20217;-77
2023/08/06 02:23:53;;;;;;;;;;;;;;;;;;1291383;23;19907;-77
2023/08/06 02:24:23;;;;;;;;;;;;;;;;;;1291657;23;19903;-77
2023/08/06 02:24:54;;;;;;;;;;;;;;;;;;1290697;23;20315;-77
2023/08/06 02:25:24;;;;;;;;;;;;;;;;;;1291242;23;19983;-77
2023/08/06 02:25:54;;;;;;;;;;;;;;;;;;1290849;23;19990;-76
2023/08/06 02:26:24;;;;;;;;;;;;;;;;;;1293092;23;19904;-76
2023/08/06 02:26:56;;;;;;;;;;;;;;;;;;1292356;23;20316;-76
2023/08/06 02:27:26;;;;;;;;;;;;;;;;;;1297687;22;19954;-78
2023/08/06 02:27:56;;;;;;;;;;;;;;;;;;1291110;23;19911;-77
2023/08/06 02:28:26;;;;;;;;;;;;;;;;;;1291210;23;19904;-77
2023/08/06 02:28:57;;;;;;;;;;;;;;;;;;1284767;23;19983;-77
2023/08/06 02:29:27;;;;;;;;;;;;;;;;;;1284854;23;20235;-76
2023/08/06 02:29:57;;;;;;;;;;;;;;;;;;1290873;23;20370;-76
2023/08/06 02:30:27;;;;;;;;;;;;;;;;;;1291263;23;20271;-77
2023/08/06 02:30:58;;;;;;;;;;;;;;;;;;1291002;23;19994;-78
2023/08/06 02:31:28;;;;;;;;;;;;;;;;;;1291054;22;19927;-77
2023/08/06 02:32:00;;;;;;;;;;;;;;;;;;1290946;23;20240;-77
2023/08/06 02:32:32;;;;;;;;;;;;;;;;;;1291123;22;19918;-77
2023/08/06 02:33:02;;;;;;;;;;;;;;;;;;1291475;22;19907;-77
2023/08/06 02:33:32;;;;;;;;;;;;;;;;;;1297562;22;19903;-77
2023/08/06 02:34:02;;;;;;;;;;;;;;;;;;1297282;22;19903;-77
2023/08/06 02:34:33;;;;;;;;;;;;;;;;;;1297891;22;19911;-77
2023/08/06 02:35:03;;;;;;;;;;;;;;;;;;1297153;22;19904;-77
2023/08/06 02:35:33;;;;;;;;;;;;;;;;;;1297355;22;20279;-76
2023/08/06 02:36:04;;;;;;;;;;;;;;;;;;1297351;22;19903;-77
2023/08/06 02:36:34;;;;;;;;;;;;;;;;;;1297419;22;19981;-77
2023/08/06 02:37:04;;;;;;;;;;;;;;;;;;1290829;22;19953;-77
2023/08/06 02:37:34;;;;;;;;;;;;;;;;;;1297505;22;19986;-77
2023/08/06 02:38:05;;;;;;;;;;;;;;;;;;1297301;22;19903;-77
2023/08/06 02:38:35;;;;;;;;;;;;;;;;;;1297398;22;20217;-76
2023/08/06 02:39:05;;;;;;;;;;;;;;;;;;1267134;22;19948;-77
2023/08/06 02:39:39;;;;;;;;;;;;;;;;;;1259499;23;19947;-76
2023/08/06 02:40:09;;;;;;;;;;;;;;;;;;1259224;23;19911;-77
2023/08/06 02:40:39;;;;;;;;;;;;;;;;;;1259462;23;19911;-77
2023/08/06 02:41:09;;;;;;;;;;;;;;;;;;1259817;23;19906;-77
2023/08/06 02:41:40;;;;;;;;;;;;;;;;;;1259449;23;19907;-79
2023/08/06 02:42:10;;;;;;;;;;;;;;;;;;1262284;23;19905;-78
2023/08/06 02:42:40;;;;;;;;;;;;;;;;;;1265438;23;20274;-77
2023/08/06 02:43:10;;;;;;;;;;;;;;;;;;1265496;23;19909;-80
2023/08/06 02:43:41;;;;;;;;;;;;;;;;;;1266137;23;19905;-78
2023/08/06 02:44:11;;;;;;;;;;;;;;;;;;1265247;23;19980;-77
2023/08/06 02:44:41;;;;;;;;;;;;;;;;;;1265312;23;19947;-77
2023/08/06 02:45:11;;;;;;;;;;;;;;;;;;1265325;23;19936;-77
2023/08/06 02:45:42;;;;;;;;;;;;;;;;;;1265493;23;20352;-77
2023/08/06 02:46:12;;;;;;;;;;;;;;;;;;1265189;23;20005;-78
2023/08/06 02:46:42;;;;;;;;;;;;;;;;;;1259568;23;19918;-77
2023/08/06 02:47:14;;;;;;;;;;;;;;;;;;1259241;23;20373;-77
2023/08/06 02:47:44;;;;;;;;;;;;;;;;;;1265541;23;19908;-75
2023/08/06 02:48:14;;;;;;;;;;;;;;;;;;1265791;23;19991;-77
2023/08/06 02:48:44;;;;;;;;;;;;;;;;;;1265498;23;19905;-76
2023/08/06 02:49:15;;;;;;;;;;;;;;;;;;1265494;23;19905;-78
2023/08/06 02:49:45;;;;;;;;;;;;;;;;;;1265447;23;20238;-77
2023/08/06 02:50:15;;;;;;;;;;;;;;;;;;1265285;23;19980;-77
2023/08/06 02:50:45;;;;;;;;;;;;;;;;;;1265380;23;19991;-76
2023/08/06 02:51:16;;;;;;;;;;;;;;;;;;1265476;23;19983;-77
2023/08/06 02:51:46;;;;;;;;;;;;;;;;;;1259258;23;19909;-77
2023/08/06 02:52:51;;;;;;;;;;;;;;;;;;1277007;23;19924;-76
2023/08/06 02:53:21;;;;;;;;;;;;;;;;;;1278793;23;19987;-77
2023/08/06 02:53:51;;;;;;;;;;;;;;;;;;1278902;23;19990;-75
2023/08/06 02:54:21;;;;;;;;;;;;;;;;;;1279162;23;20345;-77
2023/08/06 02:54:51;;;;;;;;;;;;;;;;;;1278814;23;19908;-78
2023/08/06 02:55:22;;;;;;;;;;;;;;;;;;1278998;23;20249;-77
2023/08/06 02:55:52;;;;;;;;;;;;;;;;;;1278437;23;20230;-76
2023/08/06 02:56:22;;;;;;;;;;;;;;;;;;1278734;23;19904;-77
2023/08/06 02:56:53;;;;;;;;;;;;;;;;;;1278347;23;19909;-77
2023/08/06 02:57:23;;;;;;;;;;;;;;;;;;1278351;23;19908;-75
2023/08/06 02:57:53;;;;;;;;;;;;;;;;;;1278340;23;19908;-76
2023/08/06 02:58:23;;;;;;;;;;;;;;;;;;1278628;23;19912;-77
2023/08/06 02:58:54;;;;;;;;;;;;;;;;;;1278364;23;20305;-74
2023/08/06 02:59:24;;;;;;;;;;;;;;;;;;1278978;23;19904;-75
2023/08/06 02:59:54;;;;;;;;;;;;;;;;;;1278207;23;20058;-77
2023/08/06 03:00:25;;;;;;;;;;;;;;;;;;1272410;23;19935;-76
2023/08/06 03:00:55;;;;;;;;;;;;;;;;;;1275512;23;19936;-77
2023/08/06 03:01:26;;;;;;;;;;;;;;;;;;1284988;23;20253;-77
2023/08/06 03:01:56;;;;;;;;;;;;;;;;;;1284434;23;19904;-77
2023/08/06 03:02:27;;;;;;;;;;;;;;;;;;1285215;23;19904;-77
2023/08/06 03:02:57;;;;;;;;;;;;;;;;;;1284822;23;19904;-76
2023/08/06 03:03:27;;;;;;;;;;;;;;;;;;1285185;23;19911;-76
2023/08/06 03:03:57;;;;;;;;;;;;;;;;;;1284891;23;19904;-74
2023/08/06 03:04:28;;;;;;;;;;;;;;;;;;1285198;23;19911;-75
2023/08/06 03:04:58;;;;;;;;;;;;;;;;;;1284870;23;19904;-75
2023/08/06 03:05:28;;;;;;;;;;;;;;;;;;1285224;23;19950;-75
2023/08/06 03:05:58;;;;;;;;;;;;;;;;;;1284293;23;19903;-76
2023/08/06 03:06:29;;;;;;;;;;;;;;;;;;1284615;23;19931;-75
2023/08/06 03:06:59;;;;;;;;;;;;;;;;;;1284451;23;19904;-76
2023/08/06 03:07:29;;;;;;;;;;;;;;;;;;1271197;23;19939;-75
2023/08/06 03:07:59;;;;;;;;;;;;;;;;;;1284526;23;20348;-75
2023/08/06 03:08:30;;;;;;;;;;;;;;;;;;1291470;23;19939;-75
2023/08/06 03:09:00;;;;;;;;;;;;;;;;;;1291115;23;19986;-75
2023/08/06 03:09:30;;;;;;;;;;;;;;;;;;1291635;23;20331;-78
2023/08/06 03:10:01;;;;;;;;;;;;;;;;;;1291642;23;19904;-78
2023/08/06 03:10:32;;;;;;;;;;;;;;;;;;1291730;23;19903;-78
2023/08/06 03:11:02;;;;;;;;;;;;;;;;;;1291562;23;19903;-78
2023/08/06 03:11:32;;;;;;;;;;;;;;;;;;1291138;23;19994;-78
2023/08/06 03:12:02;;;;;;;;;;;;;;;;;;1284614;23;19986;-79
2023/08/06 03:12:33;;;;;;;;;;;;;;;;;;1282905;22;20386;-77
2023/08/06 03:13:03;;;;;;;;;;;;;;;;;;1284674;23;19908;-76
2023/08/06 03:13:33;;;;;;;;;;;;;;;;;;1284919;23;19904;-78
2023/08/06 03:14:03;;;;;;;;;;;;;;;;;;1259314;23;20000;-77
2023/08/06 03:14:34;;;;;;;;;;;;;;;;;;1291291;23;19910;-77
2023/08/06 03:15:04;;;;;;;;;;;;;;;;;;1290904;23;19903;-78
2023/08/06 03:15:35;;;;;;;;;;;;;;;;;;1291219;23;19911;-78
2023/08/06 03:16:05;;;;;;;;;;;;;;;;;;1291065;23;19903;-79
2023/08/06 03:16:35;;;;;;;;;;;;;;;;;;1260041;23;19905;-78
2023/08/06 03:17:05;;;;;;;;;;;;;;;;;;1259603;23;20323;-77
2023/08/06 03:17:36;;;;;;;;;;;;;;;;;;1259958;23;19905;-78
2023/08/06 03:18:06;;;;;;;;;;;;;;;;;;1259412;23;19912;-79
2023/08/06 03:18:36;;;;;;;;;;;;;;;;;;1253411;23;19906;-77
2023/08/06 03:19:06;;;;;;;;;;;;;;;;;;1253684;23;19906;-78
2023/08/06 03:19:37;;;;;;;;;;;;;;;;;;1253515;23;19968;-75
2023/08/06 03:20:07;;;;;;;;;;;;;;;;;;1259120;23;19960;-75
2023/08/06 03:20:37;;;;;;;;;;;;;;;;;;1259691;23;19988;-75
2023/08/06 03:21:07;;;;;;;;;;;;;;;;;;1259059;23;19984;-75
2023/08/06 03:21:37;;;;;;;;;;;;;;;;;;1253272;23;19992;-75
2023/08/06 03:22:48;;;;;;;;;;;;;;;;;;1278083;23;19971;-76
2023/08/06 03:23:18;;;;;;;;;;;;;;;;;;1276475;23;19958;-75
2023/08/06 03:23:48;;;;;;;;;;;;;;;;;;1259711;23;19955;-76
2023/08/06 03:24:19;;;;;;;;;;;;;;;;;;1259467;23;19911;-76
2023/08/06 03:24:49;;;;;;;;;;;;;;;;;;1259732;23;20446;-76
2023/08/06 03:25:19;;;;;;;;;;;;;;;;;;1259559;23;20015;-76
2023/08/06 03:25:49;;;;;;;;;;;;;;;;;;1259839;23;19921;-76
2023/08/06 03:26:19;;;;;;;;;;;;;;;;;;1290579;23;19938;-76
2023/08/06 03:26:50;;;;;;;;;;;;;;;;;;1290804;23;19926;-77
2023/08/06 03:27:20;;;;;;;;;;;;;;;;;;1290614;22;19908;-76
2023/08/06 03:27:50;;;;;;;;;;;;;;;;;;1290917;23;19915;-75
2023/08/06 03:28:22;;;;;;;;;;;;;;;;;;1290762;23;19904;-75
2023/08/06 03:28:52;;;;;;;;;;;;;;;;;;1284307;23;19908;-76
2023/08/06 03:29:22;;;;;;;;;;;;;;;;;;1284666;23;19904;-76
2023/08/06 03:29:52;;;;;;;;;;;;;;;;;;1284433;23;19908;-76
2023/08/06 03:30:23;;;;;;;;;;;;;;;;;;1284699;23;20480;-76
2023/08/06 03:30:53;;;;;;;;;;;;;;;;;;1284351;23;19923;-75
2023/08/06 03:31:23;;;;;;;;;;;;;;;;;;1284541;23;19904;-75
2023/08/06 03:31:53;;;;;;;;;;;;;;;;;;1284299;23;20486;-75
2023/08/06 03:32:24;;;;;;;;;;;;;;;;;;1284646;23;20233;-75
2023/08/06 03:32:54;;;;;;;;;;;;;;;;;;1284319;23;19999;-75
2023/08/06 03:33:24;;;;;;;;;;;;;;;;;;1291038;23;20416;-74
2023/08/06 03:33:54;;;;;;;;;;;;;;;;;;1291075;23;19912;-75
2023/08/06 03:34:25;;;;;;;;;;;;;;;;;;1285657;23;19987;-75
2023/08/06 03:34:55;;;;;;;;;;;;;;;;;;1288362;23;19952;-76
2023/08/06 03:35:25;;;;;;;;;;;;;;;;;;1285326;23;20296;-76